createdAt,value
2019-01-31T00:01:17.405Z,17.57
2019-01-31T00:04:02.519Z,17.85
2019-01-31T00:06:54.938Z,18.15
2019-01-31T00:09:44.508Z,18.52
2019-01-31T00:12:57.321Z,18.37
2019-01-31T00:15:46.924Z,19.52
2019-01-31T00:18:47.401Z,17.52
2019-01-31T00:21:48.836Z,18.73
2019-01-31T00:24:46.071Z,18.23
2019-01-31T00:27:44.843Z,18.70
2019-01-31T00:30:42.214Z,17.65
2019-01-31T00:33:51.025Z,17.57
2019-01-31T00:36:59.718Z,17.67
2019-01-31T00:39:58.855Z,18.25
2019-01-31T00:42:53.054Z,17.25
2019-01-31T00:45:51.526Z,18.30
2019-01-31T00:48:48.613Z,18.80
2019-01-31T00:51:53.709Z,16.97
2019-01-31T00:54:39.419Z,16.87
2019-01-31T00:57:23.711Z,17.37
2019-01-31T00:59:58.878Z,17.40
2019-01-31T01:03:18.530Z,18.80
2019-01-31T01:06:18.231Z,18.57
2019-01-31T01:09:16.727Z,16.62
2019-01-31T01:12:25.487Z,17.73
2019-01-31T01:15:33.418Z,17.27
2019-01-31T01:18:30.940Z,17.37
2019-01-31T01:21:17.996Z,17.77
2019-01-31T01:24:25.624Z,16.15
2019-01-31T01:27:26.980Z,17.40
2019-01-31T01:30:22.750Z,18.85
2019-01-31T01:33:35.870Z,17.55
2019-01-31T01:36:18.887Z,16.75
2019-01-31T01:39:07.135Z,17.27
2019-01-31T01:42:12.563Z,17.57
2019-01-31T01:45:28.527Z,15.63
2019-01-31T01:48:27.975Z,16.65
2019-01-31T01:51:11.075Z,18.20
2019-01-31T01:53:45.173Z,16.82
2019-01-31T01:56:45.421Z,17.62
2019-01-31T01:59:47.317Z,17.30
2019-01-31T02:02:41.406Z,17.50
2019-01-31T02:05:52.699Z,15.75
2019-01-31T02:08:58.491Z,15.00
2019-01-31T02:12:07.548Z,17.50
2019-01-31T02:15:22.167Z,16.35
2019-01-31T02:18:28.010Z,15.98
2019-01-31T02:21:18.526Z,17.27
2019-01-31T02:24:06.167Z,16.75
2019-01-31T02:27:06.847Z,18.00
2019-01-31T02:29:47.814Z,16.37
2019-01-31T02:32:54.301Z,18.25
2019-01-31T02:35:38.833Z,16.07
2019-01-31T02:38:52.442Z,17.25
2019-01-31T02:41:50.517Z,16.17
2019-01-31T02:45:02.281Z,16.00
2019-01-31T02:47:39.777Z,17.62
2019-01-31T02:50:36.639Z,16.32
2019-01-31T02:53:45.353Z,17.75
2019-01-31T02:57:04.477Z,16.65
2019-01-31T03:00:10.501Z,16.02
2019-01-31T03:03:01.741Z,16.70
2019-01-31T03:05:57.246Z,17.95
2019-01-31T03:08:44.396Z,15.23
2019-01-31T03:11:43.023Z,17.40
2019-01-31T03:14:39.151Z,17.00
2019-01-31T03:17:30.999Z,15.15
2019-01-31T03:20:25.201Z,16.65
2019-01-31T03:23:38.639Z,16.52
2019-01-31T03:26:33.814Z,16.20
2019-01-31T03:29:38.269Z,15.95
2019-01-31T03:32:33.244Z,17.42
2019-01-31T03:35:23.361Z,14.85
2019-01-31T03:38:23.215Z,16.45
2019-01-31T03:41:23.433Z,15.58
2019-01-31T03:44:38.411Z,14.55
2019-01-31T03:47:38.363Z,14.58
2019-01-31T03:50:35.205Z,16.37
2019-01-31T03:53:35.283Z,14.85
2019-01-31T03:56:34.470Z,15.63
2019-01-31T03:59:11.701Z,15.40
2019-01-31T04:02:06.477Z,15.40
2019-01-31T04:04:49.358Z,14.73
2019-01-31T04:07:18.432Z,14.18
2019-01-31T04:09:47.587Z,14.60
2019-01-31T04:12:16.545Z,14.55
2019-01-31T04:14:45.639Z,15.83
2019-01-31T04:17:15.662Z,14.30
2019-01-31T04:19:44.655Z,13.38
2019-01-31T04:22:13.924Z,14.95
2019-01-31T04:24:43.025Z,15.60
2019-01-31T04:27:11.933Z,16.55
2019-01-31T04:29:40.703Z,13.62
2019-01-31T04:32:09.761Z,14.15
2019-01-31T04:34:38.925Z,15.55
2019-01-31T04:37:08.237Z,13.90
2019-01-31T04:39:37.091Z,14.53
2019-01-31T04:42:06.072Z,16.00
2019-01-31T04:44:35.264Z,15.15
2019-01-31T04:47:04.250Z,14.43
2019-01-31T04:49:33.127Z,15.10
2019-01-31T04:52:01.975Z,15.63
2019-01-31T04:54:30.861Z,15.43
2019-01-31T04:56:59.662Z,15.68
2019-01-31T04:59:28.704Z,15.10
2019-01-31T05:01:57.805Z,13.25
2019-01-31T05:04:27.046Z,14.87
2019-01-31T05:06:56.050Z,14.28
2019-01-31T05:09:25.250Z,14.53
2019-01-31T05:11:54.496Z,14.83
2019-01-31T05:14:23.498Z,14.70
2019-01-31T05:16:52.416Z,14.60
2019-01-31T05:19:21.622Z,14.15
2019-01-31T05:21:50.752Z,14.30
2019-01-31T05:24:19.791Z,15.75
2019-01-31T05:26:48.931Z,14.63
2019-01-31T05:29:17.988Z,14.83
2019-01-31T05:31:47.149Z,13.95
2019-01-31T05:34:16.264Z,15.55
2019-01-31T05:36:45.009Z,14.47
2019-01-31T05:39:20.398Z,14.03
2019-01-31T05:41:50.896Z,15.80
2019-01-31T05:44:23.554Z,15.50
2019-01-31T05:46:52.745Z,14.35
2019-01-31T05:49:21.784Z,15.85
2019-01-31T05:51:50.720Z,15.58
2019-01-31T05:54:19.771Z,15.70
2019-01-31T05:56:48.860Z,16.25
2019-01-31T05:59:18.929Z,13.60
2019-01-31T06:01:47.859Z,13.88
2019-01-31T06:04:17.094Z,14.53
2019-01-31T06:06:46.363Z,13.38
2019-01-31T06:09:15.249Z,14.00
2019-01-31T06:11:44.134Z,13.22
2019-01-31T06:14:18.944Z,12.37
2019-01-31T06:16:48.151Z,15.40
2019-01-31T06:19:17.524Z,12.85
2019-01-31T06:21:49.053Z,12.37
2019-01-31T06:24:17.892Z,13.40
2019-01-31T06:26:49.725Z,13.22
2019-01-31T06:29:18.892Z,13.32
2019-01-31T06:31:50.928Z,12.18
2019-01-31T06:34:19.877Z,13.43
2019-01-31T06:36:48.842Z,13.65
2019-01-31T06:39:20.072Z,13.85
2019-01-31T06:41:48.282Z,12.70
2019-01-31T06:44:17.227Z,13.60
2019-01-31T06:46:46.071Z,12.88
2019-01-31T06:49:14.911Z,14.73
2019-01-31T06:51:43.966Z,15.65
2019-01-31T06:54:15.245Z,13.68
2019-01-31T06:56:45.097Z,14.68
2019-01-31T06:59:18.561Z,14.65
2019-01-31T07:01:47.510Z,14.30
2019-01-31T07:04:16.547Z,13.20
2019-01-31T07:06:45.491Z,12.70
2019-01-31T07:09:14.688Z,13.58
2019-01-31T07:11:44.042Z,12.58
2019-01-31T07:14:13.130Z,12.80
2019-01-31T07:16:42.109Z,13.93
2019-01-31T07:19:10.968Z,13.58
2019-01-31T07:21:39.811Z,13.32
2019-01-31T07:24:09.043Z,12.75
2019-01-31T07:26:37.999Z,13.58
2019-01-31T07:29:06.948Z,13.62
2019-01-31T07:31:36.560Z,14.15
2019-01-31T07:34:07.674Z,13.22
2019-01-31T07:36:36.529Z,13.30
2019-01-31T07:39:08.220Z,13.60
2019-01-31T07:41:41.898Z,14.98
2019-01-31T07:44:10.712Z,14.55
2019-01-31T07:46:39.832Z,13.03
2019-01-31T07:49:08.602Z,13.53
2019-01-31T07:51:39.608Z,14.65
2019-01-31T07:54:08.604Z,13.95
2019-01-31T07:56:42.430Z,12.95
2019-01-31T07:59:11.287Z,12.10
2019-01-31T08:01:40.852Z,14.73
2019-01-31T08:04:10.224Z,12.80
2019-01-31T08:06:39.494Z,11.70
2019-01-31T08:09:09.566Z,14.38
2019-01-31T08:11:38.828Z,13.35
2019-01-31T08:14:08.180Z,14.98
2019-01-31T08:16:37.146Z,14.50
2019-01-31T08:19:07.734Z,14.70
2019-01-31T08:21:36.802Z,13.20
2019-01-31T08:24:10.003Z,14.93
2019-01-31T08:26:39.120Z,13.85
2019-01-31T08:29:08.674Z,14.87
2019-01-31T08:31:37.987Z,14.33
2019-01-31T08:34:13.272Z,14.10
2019-01-31T08:36:42.370Z,14.30
2019-01-31T08:39:11.549Z,14.87
2019-01-31T08:41:51.785Z,13.93
2019-01-31T08:44:20.760Z,14.45
2019-01-31T08:46:52.619Z,14.68
2019-01-31T08:49:21.646Z,13.83
2019-01-31T08:51:50.679Z,15.43
2019-01-31T08:54:19.519Z,13.20
2019-01-31T08:56:48.656Z,13.35
2019-01-31T08:59:19.242Z,15.30
2019-01-31T09:01:48.224Z,14.05
2019-01-31T09:04:39.335Z,13.60
2019-01-31T09:07:11.454Z,13.85
2019-01-31T09:09:40.648Z,21.68
2019-01-31T09:12:15.474Z,18.20
2019-01-31T09:14:43.509Z,19.62
2019-01-31T09:17:21.084Z,18.05
2019-01-31T09:19:50.277Z,15.78
2019-01-31T09:23:06.888Z,14.30
2019-01-31T09:26:09.318Z,14.47
2019-01-31T09:29:09.953Z,15.25
2019-01-31T09:32:17.471Z,14.78
2019-01-31T09:35:35.200Z,15.63
2019-01-31T09:38:52.530Z,14.90
2019-01-31T09:41:50.517Z,13.35
2019-01-31T09:44:35.794Z,17.65
2019-01-31T09:47:52.371Z,15.28
2019-01-31T09:50:59.540Z,14.38
2019-01-31T09:53:48.720Z,13.60
2019-01-31T09:56:59.628Z,15.35
2019-01-31T10:00:12.027Z,15.10
2019-01-31T10:03:17.181Z,14.75
2019-01-31T10:06:13.882Z,13.80
2019-01-31T10:09:23.416Z,14.68
2019-01-31T10:12:23.441Z,14.07
2019-01-31T10:14:58.981Z,13.85
2019-01-31T10:17:54.656Z,12.25
2019-01-31T10:20:56.090Z,13.40
2019-01-31T10:24:05.948Z,13.60
2019-01-31T10:27:03.030Z,13.00
2019-01-31T10:30:24.753Z,13.20
2019-01-31T10:33:19.933Z,14.03
2019-01-31T10:36:25.541Z,13.62
2019-01-31T10:39:09.696Z,13.75
2019-01-31T10:42:22.994Z,12.40
2019-01-31T10:45:22.641Z,14.55
2019-01-31T10:48:14.901Z,12.47
2019-01-31T10:51:24.004Z,12.28
2019-01-31T10:54:34.362Z,13.13
2019-01-31T10:57:30.316Z,13.10
2019-01-31T11:00:20.094Z,13.25
2019-01-31T11:03:29.836Z,12.35
2019-01-31T11:06:33.282Z,13.48
2019-01-31T11:09:52.828Z,11.90
2019-01-31T11:13:00.323Z,12.47
2019-01-31T11:15:40.333Z,11.65
2019-01-31T11:18:33.088Z,13.13
2019-01-31T11:21:47.038Z,12.93
2019-01-31T11:24:47.229Z,13.63
2019-01-31T11:28:03.632Z,12.20
2019-01-31T11:30:45.896Z,11.43
2019-01-31T11:33:43.678Z,11.60
2019-01-31T11:37:11.669Z,11.18
2019-01-31T11:40:09.854Z,9.45
2019-01-31T11:43:38.848Z,10.23
2019-01-31T11:46:27.090Z,11.30
2019-01-31T11:49:40.894Z,8.10
2019-01-31T11:52:43.456Z,8.70
2019-01-31T11:55:49.990Z,8.00
2019-01-31T11:58:48.763Z,8.28
2019-01-31T12:01:18.841Z,10.05
2019-01-31T12:03:59.894Z,9.28
2019-01-31T12:06:29.626Z,10.70
2019-01-31T12:08:58.803Z,9.85
2019-01-31T12:11:28.029Z,9.53
2019-01-31T12:13:57.368Z,8.95
2019-01-31T12:16:26.171Z,10.07
2019-01-31T12:18:54.954Z,7.23
2019-01-31T12:21:23.849Z,9.87
2019-01-31T12:23:53.179Z,9.83
2019-01-31T12:26:25.439Z,9.03
2019-01-31T12:28:54.567Z,10.27
2019-01-31T12:31:27.275Z,8.73
2019-01-31T12:33:56.146Z,8.50
2019-01-31T12:36:26.669Z,8.00
2019-01-31T12:38:55.505Z,7.50
2019-01-31T12:41:24.546Z,8.77
2019-01-31T12:43:58.970Z,7.67
2019-01-31T12:46:27.755Z,8.07
2019-01-31T12:48:56.824Z,7.43
2019-01-31T12:51:25.735Z,8.30
2019-01-31T12:53:54.694Z,7.93
2019-01-31T12:56:23.805Z,7.23
2019-01-31T12:58:52.718Z,8.37
2019-01-31T13:01:24.351Z,8.77
2019-01-31T13:03:53.309Z,8.00
2019-01-31T13:06:22.297Z,8.53
2019-01-31T13:08:51.291Z,8.83
2019-01-31T13:11:22.877Z,7.70
2019-01-31T13:13:51.871Z,8.70
2019-01-31T13:16:22.993Z,9.07
2019-01-31T13:18:53.281Z,7.90
2019-01-31T13:21:25.512Z,8.33
2019-01-31T13:23:54.490Z,7.33
2019-01-31T13:26:23.568Z,10.53
2019-01-31T13:28:58.269Z,10.27
2019-01-31T13:31:31.998Z,10.43
2019-01-31T13:34:03.659Z,9.20
2019-01-31T13:36:32.687Z,8.80
2019-01-31T13:39:09.820Z,8.27
2019-01-31T13:41:42.089Z,8.53
2019-01-31T13:44:11.232Z,8.60
2019-01-31T13:46:40.191Z,8.07
2019-01-31T13:49:09.369Z,8.17
2019-01-31T13:51:41.535Z,9.00
2019-01-31T13:54:10.777Z,8.40
2019-01-31T13:56:45.780Z,8.50
2019-01-31T13:59:13.173Z,8.60
2019-01-31T14:01:42.471Z,8.03
2019-01-31T14:04:11.855Z,8.10
2019-01-31T14:06:42.459Z,7.83
2019-01-31T14:09:14.986Z,7.80
2019-01-31T14:11:49.383Z,8.73
2019-01-31T14:14:19.166Z,7.40
2019-01-31T14:16:53.464Z,7.87
2019-01-31T14:19:24.385Z,8.13
2019-01-31T14:21:55.053Z,8.20
2019-01-31T14:24:27.692Z,8.27
2019-01-31T14:26:57.775Z,9.10
2019-01-31T14:29:26.651Z,9.27
2019-01-31T14:31:55.560Z,9.97
2019-01-31T14:34:24.507Z,8.10
2019-01-31T14:36:53.316Z,8.63
2019-01-31T14:39:22.375Z,7.77
2019-01-31T14:41:51.524Z,8.67
2019-01-31T14:44:20.939Z,8.00
2019-01-31T14:46:49.863Z,8.67
2019-01-31T14:49:18.766Z,8.40
2019-01-31T14:51:47.905Z,8.93
2019-01-31T14:54:16.843Z,9.00
2019-01-31T14:56:48.885Z,12.98
2019-01-31T14:59:17.699Z,9.93
2019-01-31T15:01:51.129Z,8.40
2019-01-31T15:04:21.538Z,8.07
2019-01-31T15:07:14.155Z,9.70
2019-01-31T15:09:43.108Z,8.70
2019-01-31T15:12:12.285Z,9.63
2019-01-31T15:14:44.645Z,8.43
2019-01-31T15:17:16.174Z,9.37
2019-01-31T15:19:45.535Z,9.80
2019-01-31T15:22:14.442Z,9.40
2019-01-31T15:24:46.555Z,10.80
2019-01-31T15:27:15.420Z,9.90
2019-01-31T15:29:44.509Z,8.27
2019-01-31T15:32:13.615Z,8.70
2019-01-31T15:34:42.546Z,9.50
2019-01-31T15:37:11.608Z,8.47
2019-01-31T15:39:40.696Z,8.90
2019-01-31T15:42:09.687Z,8.67
2019-01-31T15:44:43.314Z,9.75
2019-01-31T15:47:10.958Z,8.20
2019-01-31T15:49:40.342Z,7.73
2019-01-31T15:52:09.387Z,8.68
2019-01-31T15:54:40.455Z,7.60
2019-01-31T15:57:16.345Z,9.70
2019-01-31T15:59:42.717Z,8.33
2019-01-31T16:02:11.924Z,8.65
2019-01-31T16:04:41.043Z,11.33
2019-01-31T16:07:10.085Z,10.00
2019-01-31T16:09:39.006Z,9.40
2019-01-31T16:12:12.651Z,8.25
2019-01-31T16:14:41.888Z,11.05
2019-01-31T16:17:14.139Z,9.58
2019-01-31T16:19:43.197Z,10.65
2019-01-31T16:22:12.339Z,12.25
2019-01-31T16:24:41.178Z,11.85
2019-01-31T16:27:10.061Z,10.32
2019-01-31T16:29:39.487Z,10.40
2019-01-31T16:32:08.759Z,10.90
2019-01-31T16:34:37.751Z,10.50
2019-01-31T16:37:07.602Z,10.40
2019-01-31T16:39:36.425Z,11.70
2019-01-31T16:42:08.468Z,11.28
2019-01-31T16:44:38.369Z,11.43
2019-01-31T16:47:07.376Z,10.93
2019-01-31T16:49:36.721Z,9.90
2019-01-31T16:52:06.555Z,10.13
2019-01-31T16:54:35.621Z,11.05
2019-01-31T16:57:04.518Z,11.15
2019-01-31T16:59:33.545Z,11.90
2019-01-31T17:02:02.391Z,11.90
2019-01-31T17:04:34.272Z,11.57
2019-01-31T17:07:02.161Z,11.85
2019-01-31T17:09:31.135Z,12.23
2019-01-31T17:12:00.072Z,13.55
2019-01-31T17:14:29.289Z,12.58
2019-01-31T17:16:58.355Z,13.40
2019-01-31T17:19:27.414Z,13.72
2019-01-31T17:22:02.826Z,13.85
2019-01-31T17:24:34.407Z,14.07
2019-01-31T17:27:06.337Z,14.40
2019-01-31T17:29:37.095Z,15.05
2019-01-31T17:32:06.139Z,16.10
2019-01-31T17:34:35.505Z,14.93
2019-01-31T17:37:04.538Z,16.97
2019-01-31T17:39:33.487Z,14.98
2019-01-31T17:42:04.320Z,16.52
2019-01-31T17:44:34.071Z,15.68
2019-01-31T17:47:09.139Z,15.55
2019-01-31T17:49:37.983Z,16.30
2019-01-31T17:52:06.847Z,17.60
2019-01-31T17:54:35.876Z,17.73
2019-01-31T17:57:04.999Z,18.60
2019-01-31T17:59:37.017Z,16.87
2019-01-31T18:02:06.109Z,15.48
2019-01-31T18:04:34.959Z,17.10
2019-01-31T18:07:06.829Z,16.67
2019-01-31T18:09:35.678Z,17.65
2019-01-31T18:12:04.523Z,15.88
2019-01-31T18:14:33.397Z,15.95
2019-01-31T18:17:02.254Z,15.60
2019-01-31T18:19:31.252Z,17.37
2019-01-31T18:22:00.056Z,16.77
2019-01-31T18:24:29.063Z,17.05
2019-01-31T18:26:58.081Z,17.98
2019-01-31T18:29:26.879Z,17.48
2019-01-31T18:31:55.993Z,19.37
2019-01-31T18:34:26.125Z,19.07
2019-01-31T18:36:55.237Z,18.37
2019-01-31T18:39:24.172Z,18.35
2019-01-31T18:41:53.237Z,18.40
2019-01-31T18:44:22.159Z,17.17
2019-01-31T18:46:51.057Z,17.73
2019-01-31T18:49:19.995Z,19.55
2019-01-31T18:51:48.910Z,17.50
2019-01-31T18:54:21.610Z,17.37
2019-01-31T18:56:52.016Z,18.67
2019-01-31T18:59:20.990Z,18.30
2019-01-31T19:01:50.024Z,18.87
2019-01-31T19:04:18.899Z,18.75
2019-01-31T19:06:47.887Z,18.37
2019-01-31T19:09:16.703Z,18.92
2019-01-31T19:11:45.546Z,19.05
2019-01-31T19:14:16.438Z,20.05
2019-01-31T19:16:48.634Z,19.30
2019-01-31T19:19:17.641Z,19.25
2019-01-31T19:21:46.834Z,18.90
2019-01-31T19:24:16.135Z,19.52
2019-01-31T19:26:48.611Z,18.80
2019-01-31T19:29:19.129Z,18.10
2019-01-31T19:31:52.920Z,19.23
2019-01-31T19:34:21.919Z,17.10
2019-01-31T19:36:50.861Z,19.40
2019-01-31T19:39:19.886Z,19.65
2019-01-31T19:41:49.248Z,18.95
2019-01-31T19:44:18.220Z,19.50
2019-01-31T19:46:48.789Z,20.37
2019-01-31T19:49:20.025Z,20.50
2019-01-31T19:51:52.311Z,21.20
2019-01-31T19:54:21.815Z,19.82
2019-01-31T19:56:50.811Z,20.50
2019-01-31T19:59:20.073Z,20.40
2019-01-31T20:01:50.769Z,21.35
2019-01-31T20:04:19.635Z,21.30
2019-01-31T20:06:48.727Z,20.68
2019-01-31T20:09:22.643Z,20.27
2019-01-31T20:11:51.970Z,20.05
2019-01-31T20:14:21.184Z,19.70
2019-01-31T20:16:50.539Z,21.27
2019-01-31T20:19:20.409Z,20.40
2019-01-31T20:22:01.401Z,21.77
2019-01-31T20:24:36.324Z,22.42
2019-01-31T20:27:07.870Z,19.52
2019-01-31T20:29:37.242Z,19.45
2019-01-31T20:32:06.313Z,22.45
2019-01-31T20:34:37.855Z,21.50
2019-01-31T20:37:06.550Z,21.97
2019-01-31T20:39:38.687Z,20.82
2019-01-31T20:42:07.770Z,20.75
2019-01-31T20:44:37.108Z,19.37
2019-01-31T20:47:06.434Z,19.62
2019-01-31T20:49:35.525Z,22.75
2019-01-31T20:52:08.114Z,20.25
2019-01-31T20:54:37.204Z,21.90
2019-01-31T20:57:06.205Z,20.32
2019-01-31T20:59:36.913Z,22.73
2019-01-31T21:02:05.974Z,20.92
2019-01-31T21:04:37.174Z,23.22
2019-01-31T21:07:06.032Z,21.10
2019-01-31T21:09:35.821Z,19.73
2019-01-31T21:12:05.809Z,22.13
2019-01-31T21:14:35.206Z,21.23
2019-01-31T21:17:04.260Z,22.07
2019-01-31T21:19:38.283Z,22.75
2019-01-31T21:22:11.787Z,24.35
2019-01-31T21:24:42.319Z,25.72
2019-01-31T21:27:19.410Z,23.22
2019-01-31T21:29:48.451Z,23.30
2019-01-31T21:32:21.740Z,23.42
2019-01-31T21:34:56.687Z,23.40
2019-01-31T21:37:29.064Z,23.77
2019-01-31T21:39:59.552Z,22.13
2019-01-31T21:42:28.970Z,23.38
2019-01-31T21:44:58.218Z,26.48
2019-01-31T21:47:31.947Z,24.82
2019-01-31T21:50:01.277Z,26.27
2019-01-31T21:52:36.230Z,24.37
2019-01-31T21:55:13.563Z,24.77
2019-01-31T21:57:46.671Z,25.40
2019-01-31T22:00:25.854Z,25.72
2019-01-31T22:02:55.092Z,24.75
2019-01-31T22:05:24.444Z,27.37
2019-01-31T22:07:53.513Z,24.27
2019-01-31T22:10:22.761Z,25.55
2019-01-31T22:12:54.091Z,24.67
2019-01-31T22:15:25.345Z,26.50
2019-01-31T22:17:58.088Z,25.48
2019-01-31T22:20:25.347Z,25.85
2019-01-31T22:22:55.955Z,25.10
2019-01-31T22:25:29.928Z,26.40
2019-01-31T22:27:58.840Z,25.62
2019-01-31T22:30:30.020Z,26.55
2019-01-31T22:32:59.459Z,26.73
2019-01-31T22:35:30.603Z,25.40
2019-01-31T22:37:59.472Z,22.90
2019-01-31T22:40:35.222Z,26.12
2019-01-31T22:43:04.013Z,24.60
2019-01-31T22:45:32.889Z,26.75
2019-01-31T22:48:03.134Z,27.62
2019-01-31T22:50:39.882Z,25.27
2019-01-31T22:53:12.224Z,26.20
2019-01-31T22:55:45.910Z,27.10
2019-01-31T22:58:14.709Z,25.70
2019-01-31T23:01:14.936Z,27.50
2019-01-31T23:03:46.918Z,26.02
2019-01-31T23:06:19.874Z,27.95
2019-01-31T23:09:00.121Z,25.20
2019-01-31T23:11:39.685Z,25.95
2019-01-31T23:14:08.825Z,26.95
2019-01-31T23:16:37.986Z,25.97
2019-01-31T23:19:07.664Z,26.95
2019-01-31T23:21:36.652Z,24.95
2019-01-31T23:24:09.030Z,26.87
2019-01-31T23:26:37.981Z,26.50
2019-01-31T23:29:07.288Z,25.80
2019-01-31T23:31:36.659Z,26.27
2019-01-31T23:34:06.136Z,27.58
2019-01-31T23:36:44.071Z,26.55
2019-01-31T23:39:17.375Z,25.97
2019-01-31T23:41:46.408Z,25.60
2019-01-31T23:44:18.112Z,29.55
2019-01-31T23:46:47.306Z,26.70
2019-01-31T23:49:16.222Z,24.75
2019-01-31T23:51:47.924Z,25.12
2019-01-31T23:54:16.541Z,25.68
2019-01-31T23:56:45.586Z,24.52
2019-01-31T23:59:14.629Z,26.48
